createdAt,value
2018-09-12T00:01:34.606Z,101459.10
2018-09-12T00:04:02.888Z,101461.25
2018-09-12T00:06:31.843Z,101461.94
2018-09-12T00:09:00.365Z,101458.77
2018-09-12T00:11:28.778Z,101449.34
2018-09-12T00:13:57.268Z,101451.75
2018-09-12T00:16:25.918Z,101457.34
2018-09-12T00:18:54.202Z,101454.80
2018-09-12T00:21:22.476Z,101455.59
2018-09-12T00:23:50.915Z,101463.17
2018-09-12T00:26:19.233Z,101454.48
2018-09-12T00:28:48.497Z,101456.42
2018-09-12T00:31:16.784Z,101456.27
2018-09-12T00:33:45.451Z,101453.31
2018-09-12T00:36:15.202Z,101454.83
2018-09-12T00:38:44.345Z,101453.27
2018-09-12T00:41:13.158Z,101450.63
2018-09-12T00:43:41.409Z,101451.30
2018-09-12T00:46:09.688Z,101460.59
2018-09-12T00:48:37.934Z,101457.88
2018-09-12T00:51:06.434Z,101452.11
2018-09-12T00:53:34.936Z,101445.36
2018-09-12T00:56:03.481Z,101452.67
2018-09-12T00:58:31.802Z,101452.41
2018-09-12T01:01:00.107Z,101452.98
2018-09-12T01:03:28.355Z,101447.52
2018-09-12T01:05:56.845Z,101451.41
2018-09-12T01:08:25.399Z,101451.90
2018-09-12T01:10:53.740Z,101458.33
2018-09-12T01:13:22.218Z,101452.10
2018-09-12T01:15:50.589Z,101455.69
2018-09-12T01:18:20.354Z,101457.94
2018-09-12T01:20:50.051Z,101457.42
2018-09-12T01:23:18.644Z,101458.02
2018-09-12T01:25:47.327Z,101466.63
2018-09-12T01:28:15.625Z,101461.21
2018-09-12T01:30:44.227Z,101461.34
2018-09-12T01:33:12.498Z,101457.55
2018-09-12T01:35:40.801Z,101463.42
2018-09-12T01:38:09.050Z,101460.27
2018-09-12T01:40:38.645Z,101456.62
2018-09-12T01:43:06.934Z,101456.98
2018-09-12T01:45:37.660Z,101459.42
2018-09-12T01:48:05.912Z,101458.72
2018-09-12T01:50:34.194Z,101455.53
2018-09-12T01:53:02.758Z,101458.05
2018-09-12T01:55:31.049Z,101455.09
2018-09-12T01:57:59.463Z,101455.91
2018-09-12T02:00:33.181Z,101456.42
2018-09-12T02:03:01.436Z,101450.52
2018-09-12T02:05:29.844Z,101450.00
2018-09-12T02:07:58.388Z,101447.37
2018-09-12T02:10:26.680Z,101447.23
2018-09-12T02:12:55.170Z,101445.30
2018-09-12T02:15:23.698Z,101439.38
2018-09-12T02:17:51.993Z,101444.04
2018-09-12T02:20:20.321Z,101445.28
2018-09-12T02:22:48.611Z,101451.66
2018-09-12T02:25:17.075Z,101444.88
2018-09-12T02:27:46.359Z,101452.00
2018-09-12T02:30:14.663Z,101450.36
2018-09-12T02:32:43.057Z,101454.02
2018-09-12T02:35:18.046Z,101454.86
2018-09-12T02:37:46.288Z,101445.97
2018-09-12T02:40:16.417Z,101442.52
2018-09-12T02:42:45.816Z,101445.42
2018-09-12T02:45:14.113Z,101442.73
2018-09-12T02:47:42.581Z,101444.30
2018-09-12T02:50:12.684Z,101442.66
2018-09-12T02:52:41.490Z,101441.77
2018-09-12T02:55:11.570Z,101437.20
2018-09-12T02:57:39.822Z,101432.89
2018-09-12T03:00:08.649Z,101431.28
2018-09-12T03:02:37.016Z,101427.11
2018-09-12T03:05:05.623Z,101431.70
2018-09-12T03:07:33.973Z,101432.88
2018-09-12T03:10:02.416Z,101435.11
2018-09-12T03:12:30.742Z,101433.12
2018-09-12T03:14:58.982Z,101363.80
2018-09-12T03:17:27.278Z,101429.87
2018-09-12T03:19:55.520Z,101418.36
2018-09-12T03:22:23.947Z,101419.07
2018-09-12T03:24:52.264Z,101410.07
2018-09-12T03:27:20.592Z,101416.56
2018-09-12T03:29:48.873Z,101415.37
2018-09-12T03:32:17.525Z,101410.52
2018-09-12T03:34:45.963Z,101406.27
2018-09-12T03:37:14.271Z,101414.28
2018-09-12T03:39:42.998Z,101409.92
2018-09-12T03:42:27.849Z,101413.27
2018-09-12T03:44:56.502Z,101415.12
2018-09-12T03:47:24.993Z,101409.13
2018-09-12T03:49:53.257Z,101402.01
2018-09-12T03:52:23.096Z,101398.80
2018-09-12T03:54:51.532Z,101403.31
2018-09-12T03:57:19.832Z,101396.80
2018-09-12T03:59:48.571Z,101406.34
2018-09-12T04:05:13.463Z,101401.31
2018-09-12T04:07:42.711Z,101407.16
2018-09-12T04:10:11.921Z,101408.52
2018-09-12T04:12:41.103Z,101405.03
2018-09-12T04:15:10.330Z,101401.06
2018-09-12T04:17:39.594Z,101404.58
2018-09-12T04:20:08.819Z,101400.44
2018-09-12T04:22:37.984Z,101407.16
2018-09-12T04:25:07.730Z,101405.70
2018-09-12T04:27:36.882Z,101402.16
2018-09-12T04:30:06.535Z,101402.53
2018-09-12T04:32:35.912Z,101402.64
2018-09-12T04:35:04.858Z,101403.23
2018-09-12T04:37:34.089Z,101395.23
2018-09-12T04:40:03.420Z,101396.84
2018-09-12T04:42:32.636Z,101392.20
2018-09-12T04:45:01.796Z,101395.23
2018-09-12T04:47:31.106Z,101395.27
2018-09-12T04:50:00.312Z,101393.28
2018-09-12T04:52:29.514Z,101394.41
2018-09-12T04:54:58.986Z,101393.66
2018-09-12T04:57:28.318Z,101391.38
2018-09-12T04:59:57.503Z,101397.47
2018-09-12T05:02:26.714Z,101391.45
2018-09-12T05:04:55.916Z,101388.98
2018-09-12T05:07:25.209Z,101382.53
2018-09-12T05:09:54.387Z,101379.06
2018-09-12T05:12:23.630Z,101374.70
2018-09-12T05:14:52.790Z,101377.30
2018-09-12T05:17:22.002Z,101379.03
2018-09-12T05:19:51.082Z,101380.97
2018-09-12T05:22:20.399Z,101378.30
2018-09-12T05:24:50.138Z,101383.77
2018-09-12T05:27:19.426Z,101384.91
2018-09-12T05:29:48.870Z,101393.17
2018-09-12T05:32:18.011Z,101393.57
2018-09-12T05:34:47.080Z,101390.61
2018-09-12T05:37:16.408Z,101394.14
2018-09-12T05:39:45.674Z,101391.75
2018-09-12T05:42:14.930Z,101388.91
2018-09-12T05:44:44.374Z,101385.09
2018-09-12T05:47:13.614Z,101390.94
2018-09-12T05:49:42.768Z,101391.39
2018-09-12T05:52:12.282Z,101393.06
2018-09-12T05:54:41.470Z,101396.79
2018-09-12T05:57:10.734Z,101395.98
2018-09-12T06:00:43.062Z,101389.36
2018-09-12T06:03:13.010Z,101382.55
2018-09-12T06:05:42.067Z,101381.23
2018-09-12T06:08:11.554Z,101385.23
2018-09-12T06:10:40.811Z,101385.16
2018-09-12T06:13:09.990Z,101374.39
2018-09-12T06:15:39.234Z,101387.76
2018-09-12T06:18:08.574Z,101384.46
2018-09-12T06:20:37.762Z,101387.91
2018-09-12T06:23:06.933Z,101386.74
2018-09-12T06:25:36.581Z,101386.53
2018-09-12T06:28:05.749Z,101382.92
2018-09-12T06:30:35.092Z,101383.95
2018-09-12T06:33:04.183Z,101390.25
2018-09-12T06:35:33.395Z,101386.91
2018-09-12T06:38:02.573Z,101382.94
2018-09-12T06:40:32.084Z,101380.38
2018-09-12T06:43:01.273Z,101391.47
2018-09-12T06:45:30.392Z,101383.69
2018-09-12T06:47:59.767Z,101385.39
2018-09-12T06:50:28.983Z,101383.66
2018-09-12T06:52:58.162Z,101386.92
2018-09-12T06:55:27.406Z,101387.79
2018-09-12T06:57:56.467Z,101385.84
2018-09-12T07:00:25.869Z,101388.41
2018-09-12T07:02:55.140Z,101383.55
2018-09-12T07:05:24.379Z,101389.86
2018-09-12T07:07:53.644Z,101385.92
2018-09-12T07:10:23.162Z,101387.05
2018-09-12T07:12:52.114Z,101378.44
2018-09-12T07:15:21.263Z,101376.79
2018-09-12T07:17:50.455Z,101375.04
2018-09-12T07:20:19.675Z,101379.33
2018-09-12T07:22:48.922Z,101375.02
2018-09-12T07:25:18.176Z,101381.75
2018-09-12T07:27:47.326Z,101387.73
2018-09-12T07:30:16.353Z,101387.08
2018-09-12T07:32:45.510Z,101394.48
2018-09-12T07:35:14.653Z,101394.92
2018-09-12T07:37:43.951Z,101398.71
2018-09-12T07:40:13.140Z,101398.02
2018-09-12T07:42:42.299Z,101400.05
2018-09-12T07:45:11.820Z,101403.55
2018-09-12T07:47:41.027Z,101405.66
2018-09-12T07:50:10.034Z,101411.80
2018-09-12T07:52:39.202Z,101407.95
2018-09-12T07:55:08.645Z,101409.98
2018-09-12T07:57:37.799Z,101410.05
2018-09-12T08:00:07.390Z,101409.34
2018-09-12T08:02:36.728Z,101415.09
2018-09-12T08:05:06.134Z,101411.53
2018-09-12T08:07:35.230Z,101415.11
2018-09-12T08:10:04.241Z,101404.09
2018-09-12T08:12:33.285Z,101407.83
2018-09-12T08:15:02.421Z,101404.33
2018-09-12T08:17:31.742Z,101416.02
2018-09-12T08:20:00.770Z,101411.70
2018-09-12T08:22:29.946Z,101413.44
2018-09-12T08:24:59.223Z,101408.92
2018-09-12T08:27:28.430Z,101409.56
2018-09-12T08:29:57.590Z,101411.23
2018-09-12T08:32:26.922Z,101410.84
2018-09-12T08:34:56.386Z,101420.30
2018-09-12T08:37:26.088Z,101417.55
2018-09-12T08:39:55.388Z,101422.94
2018-09-12T08:42:24.523Z,101427.51
2018-09-12T08:44:53.683Z,101430.85
2018-09-12T08:47:22.820Z,101437.78
2018-09-12T08:49:52.370Z,101435.05
2018-09-12T08:52:21.735Z,101434.46
2018-09-12T08:54:51.114Z,101436.23
2018-09-12T08:57:20.322Z,101433.13
2018-09-12T08:59:49.506Z,101428.77
2018-09-12T09:02:19.001Z,101429.10
2018-09-12T09:04:48.754Z,101437.47
2018-09-12T09:07:18.208Z,101426.91
2018-09-12T09:09:47.438Z,101433.41
2018-09-12T09:12:16.542Z,101424.53
2018-09-12T09:14:45.738Z,101427.27
2018-09-12T09:17:15.400Z,101414.06
2018-09-12T09:19:44.619Z,101420.31
2018-09-12T09:22:13.756Z,101416.78
2018-09-12T09:24:42.921Z,101417.91
2018-09-12T09:27:12.211Z,101418.14
2018-09-12T09:29:41.383Z,101422.57
2018-09-12T09:32:10.735Z,101421.56
2018-09-12T09:34:40.058Z,101423.11
2018-09-12T09:37:09.238Z,101416.56
2018-09-12T09:39:38.305Z,101410.48
2018-09-12T09:42:07.806Z,101419.17
2018-09-12T09:44:36.843Z,101416.23
2018-09-12T09:47:06.163Z,101416.78
2018-09-12T09:49:35.418Z,101413.79
2018-09-12T09:52:04.370Z,101407.34
2018-09-12T09:54:33.619Z,101405.45
2018-09-12T09:57:02.900Z,101403.05
2018-09-12T09:59:32.110Z,101398.79
2018-09-12T10:02:06.463Z,101401.59
2018-09-12T10:04:40.712Z,101398.45
2018-09-12T10:07:14.760Z,101397.54
2018-09-12T10:09:54.390Z,101395.36
2018-09-12T10:12:23.676Z,101396.96
2018-09-12T10:14:52.781Z,101394.52
